Time;durP1;ratioP1;P1;durP2;ratioP2;P2;SDS_P1;SDS_P2;PMS_P1;PMS_P2;Temp;Humidity;BMP_temperature;BMP_pressure;BME280_temperature;BME280_humidity;BME280_pressure;Samples;Min_cycle;Max_cycle;Signal;HPM_P1;HPM_P2
2023/06/13 00:01:48;;;;;;;6.70;5.30;;;;;;;20.41;39.77;101498.19;4994320;28;20451;-74
2023/06/13 00:04:21;;;;;;;5.32;4.80;;;;;;;20.33;40.39;101499.88;4994341;28;20061;-74
2023/06/13 00:06:53;;;;;;;5.88;5.32;;;;;;;20.26;40.48;101496.41;4994356;28;20047;-74
2023/06/13 00:09:20;;;;;;;;;;;;;;;20.26;39.12;101493.72;4994218;28;20059;-74
2023/06/13 00:11:49;;;;;;;11.68;5.40;;;;;;;20.14;40.87;101497.63;4994796;28;19926;-75
2023/06/13 00:14:17;;;;;;;7.90;5.03;;;;;;;20.07;41.46;101492.69;4975762;28;20055;-74
2023/06/13 00:16:47;;;;;;;5.70;5.03;;;;;;;20.04;41.42;101495.63;4994385;28;20042;-74
2023/06/13 00:19:14;;;;;;;4.75;4.45;;;;;;;19.94;42.24;101487.00;4994000;28;20053;-74
2023/06/13 00:21:41;;;;;;;12.50;6.30;;;;;;;19.86;42.54;101488.69;4993892;28;20054;-74
2023/06/13 00:24:08;;;;;;;5.80;4.80;;;;;;;19.77;42.63;101489.63;4994436;28;20042;-74
2023/06/13 00:26:34;;;;;;;8.18;5.50;;;;;;;19.68;43.99;101489.09;4977234;28;20570;-74
2023/06/13 00:29:01;;;;;;;6.95;5.03;;;;;;;19.62;44.14;101483.66;4993440;28;20322;-74
2023/06/13 00:31:29;;;;;;;5.88;4.72;;;;;;;19.51;44.10;101486.34;4994182;28;20075;-74
2023/06/13 00:33:56;;;;;;;5.35;4.85;;;;;;;19.44;45.16;101484.06;4994001;28;20071;-74
2023/06/13 00:36:28;;;;;;;5.00;4.63;;;;;;;19.41;44.06;101487.72;4976234;28;20047;-74
2023/06/13 00:38:57;;;;;;;7.50;4.85;;;;;;;19.33;45.33;101485.47;4976108;28;20051;-74
2023/06/13 00:41:24;;;;;;;11.35;4.97;;;;;;;19.26;44.54;101485.16;4993409;28;20047;-74
2023/06/13 00:43:51;;;;;;;6.45;5.25;;;;;;;19.22;45.88;101485.38;4975971;28;20051;-75
2023/06/13 00:46:28;;;;;;;6.40;5.60;;;;;;;19.16;46.10;101481.94;4993803;28;20043;-74
2023/06/13 00:48:58;;;;;;;5.32;5.00;;;;;;;19.13;46.71;101482.16;4993838;28;20473;-74
2023/06/13 00:51:27;;;;;;;6.05;5.50;;;;;;;19.02;47.23;101484.78;4992224;28;20062;-74
2023/06/13 00:53:58;;;;;;;6.47;4.90;;;;;;;18.98;48.08;101474.94;4993180;28;20562;-73
2023/06/13 00:56:28;;;;;;;9.75;5.72;;;;;;;18.94;47.70;101479.81;4993155;28;20047;-73
2023/06/13 00:59:03;;;;;;;7.28;5.20;;;;;;;18.88;47.68;101478.28;4993871;28;20075;-74
2023/06/13 01:01:30;;;;;;;7.38;5.60;;;;;;;18.77;48.12;101475.53;4976021;28;20114;-74
2023/06/13 01:03:59;;;;;;;7.43;5.20;;;;;;;18.69;48.02;101475.22;4993789;28;20043;-74
2023/06/13 01:06:30;;;;;;;5.82;5.32;;;;;;;18.63;48.92;101475.16;4992874;28;20090;-74
2023/06/13 01:09:00;;;;;;;6.20;5.60;;;;;;;18.58;48.78;101475.09;4993381;28;20138;-74
2023/06/13 01:11:40;;;;;;;5.57;5.07;;;;;;;18.54;49.44;101471.88;4992827;28;20393;-74
2023/06/13 01:14:16;;;;;;;6.50;5.90;;;;;;;18.48;48.95;101473.75;4993373;28;20078;-73
2023/06/13 01:16:50;;;;;;;8.65;5.75;;;;;;;18.41;49.21;101477.63;4975362;28;20047;-74
2023/06/13 01:19:28;;;;;;;5.80;5.28;;;;;;;18.36;50.07;101472.19;4975685;28;20078;-74
2023/06/13 01:21:56;;;;;;;6.13;5.53;;;;;;;18.30;49.64;101478.28;4993375;28;20488;-74
2023/06/13 01:24:38;;;;;;;6.97;5.82;;;;;;;18.22;49.57;101476.47;4975440;28;20534;-74
2023/06/13 01:27:06;;;;;;;;;;;;;;;18.20;48.31;101479.63;4991655;28;20082;-73
2023/06/13 01:29:35;;;;;;;5.90;5.40;;;;;;;18.11;50.61;101477.09;4992833;28;20053;-73
2023/06/13 01:32:03;;;;;;;5.75;5.22;;;;;;;18.06;50.73;101479.72;4993147;28;20122;-73
2023/06/13 01:34:30;;;;;;;9.23;5.68;;;;;;;17.96;51.23;101479.13;4992890;28;20138;-74
2023/06/13 01:36:57;;;;;;;6.25;5.75;;;;;;;17.90;51.03;101475.63;4992856;28;20043;-74
2023/06/13 01:39:24;;;;;;;9.55;5.75;;;;;;;17.85;52.11;101473.63;4974500;28;20113;-73
2023/06/13 01:41:51;;;;;;;5.90;5.30;;;;;;;17.81;52.15;101476.50;4992558;28;20419;-74
2023/06/13 01:44:19;;;;;;;5.95;5.38;;;;;;;17.72;52.86;101478.59;4992858;28;20043;-74
2023/06/13 01:47:28;;;;;;;6.28;5.68;;;;;;;17.62;52.05;101480.63;4992666;28;20050;-74
2023/06/13 01:50:07;;;;;;;5.55;5.15;;;;;;;17.54;52.74;101477.63;4975309;28;20050;-73
2023/06/13 01:52:51;;;;;;;5.97;5.47;;;;;;;17.48;52.91;101481.44;4993217;28;20503;-75
2023/06/13 01:55:25;;;;;;;5.55;5.10;;;;;;;17.42;53.63;101472.56;4992499;28;20174;-75
2023/06/13 01:58:07;;;;;;;7.60;5.10;;;;;;;17.34;53.46;101477.59;4992935;28;20054;-75
2023/06/13 02:00:34;;;;;;;6.47;5.32;;;;;;;17.24;54.43;101476.22;4991628;28;20050;-75
2023/06/13 02:03:03;;;;;;;5.55;5.15;;;;;;;17.18;54.17;101476.16;4992883;28;20054;-75
2023/06/13 02:05:30;;;;;;;6.55;5.47;;;;;;;17.12;53.93;101480.72;4991925;28;20051;-75
2023/06/13 02:07:57;;;;;;;7.32;5.40;;;;;;;17.04;54.21;101476.91;4990666;28;20062;-74
2023/06/13 02:10:24;;;;;;;7.63;5.45;;;;;;;16.96;54.81;101476.53;4974467;28;20057;-74
2023/06/13 02:12:51;;;;;;;5.57;4.90;;;;;;;16.90;55.28;101478.41;4992667;28;20122;-75
2023/06/13 02:15:18;;;;;;;5.82;5.22;;;;;;;16.85;54.67;101473.69;4990935;28;20138;-74
2023/06/13 02:17:47;;;;;;;5.45;5.00;;;;;;;16.81;54.58;101475.06;4991050;28;20126;-74
2023/06/13 02:20:14;;;;;;;5.32;4.80;;;;;;;16.75;55.30;101469.63;4992415;28;20501;-74
2023/06/13 02:22:41;;;;;;;6.78;6.18;;;;;;;16.67;55.78;101479.25;4990874;28;20142;-74
2023/06/13 02:25:08;;;;;;;9.40;5.13;;;;;;;16.60;55.99;101483.03;4991980;28;20043;-74
2023/06/13 02:27:35;;;;;;;7.13;5.40;;;;;;;16.57;56.09;101480.53;4992406;28;20534;-74
2023/06/13 02:30:03;;;;;;;5.82;5.40;;;;;;;16.53;56.07;101471.91;4992525;28;20047;-74
2023/06/13 02:32:30;;;;;;;7.32;6.35;;;;;;;16.48;56.50;101469.84;4991036;28;20109;-75
2023/06/13 02:34:56;;;;;;;10.63;5.50;;;;;;;16.43;56.22;101475.88;4991960;28;20051;-74
2023/06/13 02:37:23;;;;;;;6.15;5.65;;;;;;;16.38;56.46;101474.59;4991852;28;20051;-74
2023/06/13 02:39:49;;;;;;;6.00;5.50;;;;;;;16.32;56.52;101474.47;4992693;28;20516;-74
2023/06/13 02:42:16;;;;;;;8.70;5.97;;;;;;;16.29;56.94;101477.34;4976681;28;20534;-74
2023/06/13 02:44:44;;;;;;;7.95;5.25;;;;;;;16.22;56.84;101475.00;4994087;28;20059;-74
2023/06/13 02:47:10;;;;;;;5.65;5.25;;;;;;;16.20;57.07;101482.78;4995446;28;20054;-74
2023/06/13 02:49:37;;;;;;;6.00;5.50;;;;;;;16.15;57.83;101486.84;4995802;28;20118;-74
2023/06/13 02:52:04;;;;;;;6.30;5.80;;;;;;;16.09;58.16;101477.19;4977681;28;20049;-74
2023/06/13 02:54:30;;;;;;;6.63;5.70;;;;;;;16.05;57.90;101482.75;4993951;28;20054;-74
2023/06/13 02:56:57;;;;;;;6.13;5.53;;;;;;;16.02;58.04;101478.28;4995167;28;20162;-74
2023/06/13 02:59:26;;;;;;;5.90;5.40;;;;;;;15.96;57.82;101482.84;4993890;28;20047;-75
2023/06/13 03:01:53;;;;;;;7.35;5.78;;;;;;;15.92;57.31;101482.25;4977601;28;20142;-74
2023/06/13 03:04:20;;;;;;;6.07;5.57;;;;;;;15.88;57.47;101484.38;4977509;28;20139;-74
2023/06/13 03:06:46;;;;;;;7.25;5.78;;;;;;;15.82;57.40;101478.91;4994719;28;20122;-74
2023/06/13 03:09:15;;;;;;;6.47;5.88;;;;;;;15.77;57.87;101489.50;4976636;28;20416;-74
2023/06/13 03:11:41;;;;;;;9.13;5.38;;;;;;;15.75;57.59;101492.66;4994877;28;20047;-74
2023/06/13 03:14:08;;;;;;;8.65;6.10;;;;;;;15.74;57.93;101493.09;4994491;28;20538;-74
2023/06/13 03:16:38;;;;;;;8.73;6.53;;;;;;;15.66;58.08;101493.44;4995281;28;20034;-74
2023/06/13 03:19:05;;;;;;;6.25;5.75;;;;;;;15.64;58.67;101501.22;4976725;28;20055;-74
2023/06/13 03:21:32;;;;;;;7.65;6.18;;;;;;;15.61;58.56;101499.44;4994615;28;20137;-74
2023/06/13 03:24:00;;;;;;;8.23;6.20;;;;;;;15.60;58.77;101500.63;4976741;28;20098;-74
2023/06/13 03:26:28;;;;;;;6.00;5.60;;;;;;;15.53;59.11;101492.16;4993065;28;20421;-74
2023/06/13 03:28:57;;;;;;;6.65;5.90;;;;;;;15.51;59.66;101489.94;4977004;28;20078;-74
2023/06/13 03:31:24;;;;;;;9.02;5.97;;;;;;;15.51;59.66;101492.63;4993258;28;20438;-74
2023/06/13 03:33:53;;;;;;;6.38;5.75;;;;;;;15.47;59.38;101494.72;4993241;28;20058;-74
2023/06/13 03:36:20;;;;;;;6.53;5.93;;;;;;;15.40;59.48;101494.31;4993955;28;20061;-74
2023/06/13 03:38:46;;;;;;;7.78;5.93;;;;;;;15.39;59.57;101498.94;4994618;28;20043;-74
2023/06/13 03:41:14;;;;;;;7.43;5.60;;;;;;;15.38;60.29;101502.06;4993139;28;20043;-74
2023/06/13 03:43:41;;;;;;;9.38;5.72;;;;;;;15.35;60.01;101495.66;4993172;28;20122;-74
2023/06/13 03:46:08;;;;;;;6.03;5.50;;;;;;;15.33;60.47;101496.13;4994424;28;20047;-74
2023/06/13 03:48:34;;;;;;;7.95;6.07;;;;;;;15.33;60.52;101495.38;4995255;28;20074;-74
2023/06/13 03:51:01;;;;;;;7.65;5.72;;;;;;;15.34;60.03;101494.19;4993877;28;20419;-74
2023/06/13 03:53:28;;;;;;;8.50;6.15;;;;;;;15.33;60.17;101492.69;4992500;28;20144;-74
2023/06/13 03:55:54;;;;;;;6.43;5.93;;;;;;;15.33;60.59;101490.00;4976545;28;20499;-74
2023/06/13 03:58:22;;;;;;;6.28;5.75;;;;;;;15.33;60.03;101493.44;4993193;28;20498;-74
2023/06/13 04:00:49;;;;;;;8.45;6.63;;;;;;;15.36;60.08;101494.47;4992955;28;20559;-74
2023/06/13 04:03:15;;;;;;;6.85;6.25;;;;;;;15.34;60.51;101492.25;4994244;28;20102;-74
2023/06/13 04:05:42;;;;;;;11.00;6.45;;;;;;;15.35;60.17;101490.31;4993837;28;20034;-74
2023/06/13 04:08:11;;;;;;;6.88;6.28;;;;;;;15.36;59.79;101494.47;4994115;28;20063;-74
2023/06/13 04:10:38;;;;;;;7.72;7.00;;;;;;;15.36;59.94;101497.16;4973862;28;20054;-74
2023/06/13 04:13:06;;;;;;;9.95;5.93;;;;;;;15.41;60.42;101501.16;4974694;28;20048;-74
2023/06/13 04:15:32;;;;;;;9.13;6.18;;;;;;;15.40;60.31;101500.41;5006125;28;20059;-74
2023/06/13 04:18:03;;;;;;;7.80;6.35;;;;;;;15.46;59.66;101501.28;4973001;28;20094;-74
2023/06/13 04:20:34;;;;;;;7.50;6.13;;;;;;;15.51;60.71;101502.59;5005832;28;20055;-74
2023/06/13 04:23:01;;;;;;;6.30;5.75;;;;;;;15.56;60.50;101502.75;4974453;28;20047;-74
2023/06/13 04:25:27;;;;;;;8.02;6.18;;;;;;;15.64;59.65;101506.56;4974500;28;20102;-73
2023/06/13 04:27:57;;;;;;;10.52;6.10;;;;;;;15.75;60.83;101502.66;4974540;28;20051;-74
2023/06/13 04:30:25;;;;;;;10.88;6.70;;;;;;;15.80;59.61;101502.75;4974086;28;20309;-74
2023/06/13 04:32:51;;;;;;;7.50;6.53;;;;;;;15.89;59.35;101508.09;4974113;28;20520;-74
2023/06/13 04:35:22;;;;;;;6.70;6.10;;;;;;;15.99;60.20;101500.72;4973590;28;20054;-74
2023/06/13 04:37:48;;;;;;;9.18;6.30;;;;;;;16.05;58.40;101508.84;4973030;28;20047;-74
2023/06/13 04:40:16;;;;;;;6.97;6.32;;;;;;;16.70;57.94;101502.53;4974317;28;20405;-74
2023/06/13 04:42:54;;;;;;;7.00;6.30;;;;;;;17.12;53.32;101504.19;4972884;28;20054;-74
2023/06/13 04:45:21;;;;;;;7.35;6.65;;;;;;;17.24;53.63;101505.81;5005177;28;20548;-74
2023/06/13 04:47:48;;;;;;;12.63;6.82;;;;;;;18.21;51.65;101501.94;4974172;28;20086;-74
2023/06/13 04:50:25;;;;;;;11.90;6.63;;;;;;;20.20;46.36;101501.06;4974289;28;20039;-75
2023/06/13 04:52:53;;;;;;;6.45;5.95;;;;;;;21.76;44.36;101500.25;4973910;28;20058;-74
2023/06/13 04:55:22;;;;;;;7.85;6.55;;;;;;;23.64;39.17;101503.25;4973674;28;20074;-75
2023/06/13 04:57:49;;;;;;;8.80;7.28;;;;;;;25.15;36.23;101501.75;4974249;28;20047;-75
2023/06/13 05:00:16;;;;;;;11.95;6.22;;;;;;;26.14;33.60;101500.22;4973940;28;20051;-75
2023/06/13 05:02:45;;;;;;;6.75;6.18;;;;;;;26.89;32.38;101508.34;4973544;28;20047;-75
2023/06/13 05:05:14;;;;;;;6.80;6.13;;;;;;;27.46;31.00;101508.34;4972533;28;20043;-75
2023/06/13 05:07:41;;;;;;;8.73;7.18;;;;;;;27.68;29.58;101507.00;4955784;28;20062;-74
2023/06/13 05:10:08;;;;;;;7.57;6.65;;;;;;;28.08;29.86;101512.03;4972555;28;20059;-75
2023/06/13 05:12:38;;;;;;;10.25;6.35;;;;;;;28.49;28.34;101519.94;4974590;28;20075;-75
2023/06/13 05:15:05;;;;;;;9.02;6.20;;;;;;;28.98;28.13;101529.81;4973273;28;20051;-75
2023/06/13 05:17:31;;;;;;;13.05;6.65;;;;;;;29.02;28.13;101529.44;4973387;28;20428;-75
2023/06/13 05:19:58;;;;;;;6.82;6.18;;;;;;;29.43;27.43;101531.00;4973733;28;20425;-75
2023/06/13 05:22:24;;;;;;;9.88;6.45;;;;;;;29.66;27.57;101533.66;4973548;28;20047;-75
2023/06/13 05:24:51;;;;;;;18.35;6.60;;;;;;;29.46;27.43;101538.13;4973284;28;20050;-75
2023/06/13 05:27:17;;;;;;;14.68;6.70;;;;;;;29.57;27.15;101528.78;4973516;28;20051;-75
2023/06/13 05:29:44;;;;;;;8.48;6.78;;;;;;;29.79;27.44;101536.88;4973686;28;20059;-75
2023/06/13 05:32:11;;;;;;;7.22;6.50;;;;;;;29.88;26.91;101529.34;4973298;28;20072;-75
2023/06/13 05:34:38;;;;;;;7.00;6.50;;;;;;;29.60;27.05;101539.34;4972548;28;20052;-75
2023/06/13 05:37:10;;;;;;;9.32;6.53;;;;;;;29.64;28.38;101533.47;4973211;28;20061;-75
2023/06/13 05:39:38;;;;;;;11.93;6.68;;;;;;;29.26;27.10;101539.78;4974059;28;20117;-75
2023/06/13 05:42:05;;;;;;;7.65;6.95;;;;;;;29.10;28.06;101536.38;4972936;28;20090;-75
2023/06/13 05:44:31;;;;;;;9.38;6.65;;;;;;;28.99;28.29;101530.53;4974350;28;20043;-75
2023/06/13 05:46:58;;;;;;;7.35;6.40;;;;;;;29.12;28.04;101538.56;4973853;28;20054;-75
2023/06/13 05:49:25;;;;;;;11.10;6.13;;;;;;;28.84;28.85;101534.75;4956369;28;20114;-75
2023/06/13 05:51:53;;;;;;;11.15;6.22;;;;;;;28.78;28.49;101530.72;4973652;28;20043;-75
2023/06/13 05:54:19;;;;;;;11.50;6.13;;;;;;;28.66;28.86;101546.81;4973764;28;20055;-75
2023/06/13 05:56:46;;;;;;;7.20;5.70;;;;;;;28.24;28.94;101537.44;4980654;28;20050;-75
2023/06/13 05:59:14;;;;;;;7.80;6.30;;;;;;;28.03;30.13;101532.06;4993736;28;20047;-75
2023/06/13 06:01:42;;;;;;;6.95;6.05;;;;;;;27.99;30.62;101539.94;4993158;28;20464;-75
2023/06/13 06:04:08;;;;;;;7.15;5.63;;;;;;;27.91;30.28;101541.91;4975562;28;20058;-74
2023/06/13 06:06:35;;;;;;;7.03;6.00;;;;;;;27.51;30.10;101532.06;4994116;28;20047;-74
2023/06/13 06:09:02;;;;;;;12.88;6.20;;;;;;;27.22;30.20;101541.56;4993101;28;20166;-74
2023/06/13 06:11:33;;;;;;;10.82;6.22;;;;;;;27.02;31.22;101537.63;4993269;28;20460;-75
2023/06/13 06:14:01;;;;;;;6.28;5.65;;;;;;;26.95;33.26;101540.25;4993615;28;20058;-74
2023/06/13 06:16:27;;;;;;;10.32;5.80;;;;;;;26.75;31.66;101539.75;4992013;28;20047;-73
2023/06/13 06:18:54;;;;;;;7.43;5.80;;;;;;;26.49;31.98;101534.44;4993276;28;20047;-73
2023/06/13 06:21:21;;;;;;;11.40;5.85;;;;;;;26.30;31.87;101542.06;4992943;28;20050;-75
2023/06/13 06:23:47;;;;;;;9.60;5.50;;;;;;;26.19;31.59;101543.03;4993528;28;20047;-74
2023/06/13 06:26:14;;;;;;;6.30;5.78;;;;;;;26.04;32.97;101542.84;4975538;28;20053;-74
2023/06/13 06:28:41;;;;;;;9.60;5.68;;;;;;;26.04;32.64;101534.66;4993147;28;20043;-74
2023/06/13 06:31:07;;;;;;;7.68;5.47;;;;;;;26.12;33.19;101535.50;4992711;28;20130;-73
2023/06/13 06:33:34;;;;;;;8.18;5.40;;;;;;;26.10;32.77;101533.28;4992958;28;20054;-74
2023/06/13 06:36:01;;;;;;;9.55;5.78;;;;;;;26.05;33.08;101531.41;4993104;28;20054;-74
2023/06/13 06:38:28;;;;;;;12.55;5.57;;;;;;;26.03;33.21;101531.22;4992862;28;20054;-74
2023/06/13 06:40:55;;;;;;;5.80;5.25;;;;;;;26.19;33.68;101541.03;4993627;28;20039;-73
2023/06/13 06:43:21;;;;;;;8.77;6.32;;;;;;;26.27;32.65;101541.13;4993004;28;20148;-73
2023/06/13 06:45:48;;;;;;;8.77;5.32;;;;;;;26.22;33.65;101539.97;4992826;28;20125;-73
2023/06/13 06:48:15;;;;;;;10.13;5.30;;;;;;;26.29;32.26;101540.59;4992436;28;20050;-75
2023/06/13 06:50:41;;;;;;;6.57;5.63;;;;;;;26.35;32.62;101539.22;4993071;28;20047;-74
2023/06/13 06:53:08;;;;;;;6.20;5.13;;;;;;;26.31;32.30;101532.63;4992681;28;20047;-74
2023/06/13 06:55:34;;;;;;;5.88;5.32;;;;;;;26.36;31.68;101535.25;4992711;28;20121;-74
2023/06/13 06:58:01;;;;;;;5.78;5.32;;;;;;;26.49;32.00;101540.63;4992663;28;20419;-74
2023/06/13 07:00:28;;;;;;;5.95;5.00;;;;;;;26.45;32.58;101537.47;4974390;28;20174;-74
2023/06/13 07:02:54;;;;;;;6.95;5.18;;;;;;;26.53;32.57;101532.84;4992828;28;20176;-74
2023/06/13 07:05:21;;;;;;;11.68;5.47;;;;;;;26.69;32.19;101536.44;4992409;28;20047;-73
2023/06/13 07:07:48;;;;;;;6.80;5.50;;;;;;;26.64;32.16;101531.09;4992308;28;20043;-73
2023/06/13 07:10:15;;;;;;;6.60;4.90;;;;;;;26.70;32.11;101529.72;4992568;28;20511;-73
2023/06/13 07:12:42;;;;;;;5.80;5.30;;;;;;;26.81;32.03;101531.41;4992836;28;20526;-75
2023/06/13 07:15:09;;;;;;;6.38;4.90;;;;;;;26.92;31.58;101526.41;4992364;28;20509;-75
2023/06/13 07:17:35;;;;;;;8.05;5.05;;;;;;;26.98;30.78;101537.22;4992642;28;20047;-74
2023/06/13 07:20:05;;;;;;;5.28;4.85;;;;;;;26.87;30.17;101538.19;4992694;28;20047;-76
2023/06/13 07:22:32;;;;;;;5.85;5.10;;;;;;;26.82;29.71;101528.13;4992206;28;20046;-77
2023/06/13 07:24:58;;;;;;;12.07;5.10;;;;;;;26.84;30.71;101530.34;4991335;28;20134;-77
2023/06/13 07:27:25;;;;;;;12.13;5.30;;;;;;;26.93;31.39;101527.13;4991778;28;20054;-77
2023/06/13 07:29:51;;;;;;;5.97;5.32;;;;;;;26.97;30.78;101541.22;4995249;28;20597;-77
2023/06/13 07:32:18;;;;;;;9.65;5.03;;;;;;;27.17;30.97;101535.00;4994041;28;20079;-77
2023/06/13 07:34:44;;;;;;;6.50;4.90;;;;;;;27.37;29.43;101532.72;4995806;28;20057;-75
2023/06/13 07:37:30;;;;;;;9.35;5.28;;;;;;;27.43;29.86;101542.22;4995978;28;20047;-75
2023/06/13 07:39:57;;;;;;;11.65;5.40;;;;;;;27.55;30.30;101537.91;4977819;28;20055;-75
2023/06/13 07:42:24;;;;;;;9.10;5.25;;;;;;;27.77;29.94;101533.09;4994754;28;20058;-76
2023/06/13 07:44:50;;;;;;;8.57;5.50;;;;;;;27.96;28.89;101532.81;4995717;28;20058;-77
2023/06/13 07:47:17;;;;;;;5.68;5.13;;;;;;;27.75;29.54;101536.38;4995429;28;20102;-76
2023/06/13 07:49:43;;;;;;;5.88;5.13;;;;;;;27.92;28.55;101535.16;4996353;28;20110;-75
2023/06/13 07:52:10;;;;;;;16.13;5.45;;;;;;;28.14;28.29;101527.00;4995340;28;20415;-74
2023/06/13 07:54:37;;;;;;;5.38;4.80;;;;;;;28.15;28.14;101528.47;4995415;28;20085;-74
2023/06/13 07:57:04;;;;;;;9.82;5.00;;;;;;;28.26;28.17;101527.41;4994993;28;20050;-76
2023/06/13 07:59:51;;;;;;;5.25;4.85;;;;;;;28.50;27.11;101534.38;4995708;28;20078;-75
2023/06/13 08:02:17;;;;;;;7.32;4.80;;;;;;;28.42;27.53;101531.63;4995015;28;20046;-79
2023/06/13 08:04:44;;;;;;;6.05;5.03;;;;;;;28.60;28.20;101529.81;4995512;28;20550;-74
2023/06/13 08:07:20;;;;;;;7.43;4.78;;;;;;;28.76;27.05;101539.50;4993426;28;20141;-76
2023/06/13 08:09:46;;;;;;;5.75;4.72;;;;;;;28.88;26.89;101531.63;4995099;28;20058;-74
2023/06/13 08:12:13;;;;;;;5.30;4.80;;;;;;;28.96;26.70;101526.88;4994453;28;20117;-76
2023/06/13 08:14:40;;;;;;;5.00;4.60;;;;;;;28.92;26.58;101526.53;4995202;28;20508;-74
2023/06/13 08:17:06;;;;;;;8.20;5.05;;;;;;;28.84;26.42;101534.75;4994850;28;20094;-73
2023/06/13 08:19:33;;;;;;;8.07;4.85;;;;;;;28.88;26.13;101529.63;4995210;28;20117;-74
2023/06/13 08:21:59;;;;;;;9.32;4.47;;;;;;;28.90;26.61;101536.56;4995086;28;20195;-74
2023/06/13 08:24:26;;;;;;;5.10;4.70;;;;;;;28.91;25.91;101524.34;4977834;28;20487;-75
2023/06/13 08:26:53;;;;;;;5.45;4.95;;;;;;;28.96;26.56;101523.41;4994772;28;20070;-75
2023/06/13 08:29:20;;;;;;;7.65;4.85;;;;;;;28.98;25.81;101526.34;4994698;28;20098;-74
2023/06/13 08:31:46;;;;;;;4.82;4.28;;;;;;;29.12;26.63;101522.84;4994887;28;20054;-74
2023/06/13 08:34:16;;;;;;;6.97;4.60;;;;;;;29.37;26.36;101520.22;4976537;28;20055;-76
2023/06/13 08:36:43;;;;;;;7.13;4.43;;;;;;;29.55;25.27;101517.63;5003427;28;20059;-75
2023/06/13 08:39:10;;;;;;;5.50;4.30;;;;;;;29.45;25.28;101523.69;4974595;28;20046;-74
2023/06/13 08:41:37;;;;;;;11.77;4.32;;;;;;;29.50;25.03;101527.50;4974626;28;20084;-75
2023/06/13 08:44:04;;;;;;;6.10;4.53;;;;;;;29.35;25.02;101522.78;4975070;28;20125;-74
2023/06/13 08:46:33;;;;;;;8.27;5.28;;;;;;;29.52;24.17;101524.94;4975088;28;20053;-75
2023/06/13 08:48:59;;;;;;;7.65;6.65;;;;;;;29.44;24.72;101524.97;4975169;28;20051;-75
2023/06/13 08:51:30;;;;;;;6.60;4.70;;;;;;;29.47;25.18;101518.38;4973006;28;20415;-77
2023/06/13 08:54:08;;;;;;;7.63;4.35;;;;;;;29.52;24.18;101531.16;4973640;28;20152;-74
2023/06/13 08:56:40;;;;;;;6.95;4.60;;;;;;;29.50;24.95;101527.50;5005800;28;20055;-73
2023/06/13 08:59:23;;;;;;;4.75;4.35;;;;;;;29.55;24.83;101515.59;5006294;28;20058;-74
2023/06/13 09:01:51;;;;;;;4.95;4.55;;;;;;;29.74;24.92;101507.63;4975122;28;20047;-74
2023/06/13 09:04:19;;;;;;;5.10;4.72;;;;;;;29.75;23.73;101505.63;4974794;28;20130;-73
2023/06/13 09:06:46;;;;;;;8.30;4.85;;;;;;;29.71;23.39;101508.03;4974920;28;20044;-73
2023/06/13 09:09:16;;;;;;;6.72;4.65;;;;;;;29.92;23.82;101513.97;4973904;28;20491;-74
2023/06/13 09:11:44;;;;;;;8.00;4.85;;;;;;;30.08;24.18;101522.84;4974574;28;20055;-73
2023/06/13 09:14:11;;;;;;;5.30;4.90;;;;;;;30.07;23.48;101516.63;4974416;28;20119;-73
2023/06/13 09:16:39;;;;;;;4.95;4.70;;;;;;;29.92;23.88;101522.19;4975034;28;20122;-73
2023/06/13 09:19:06;;;;;;;6.28;4.60;;;;;;;29.97;23.86;101513.00;4974408;28;20051;-73
2023/06/13 09:21:36;;;;;;;13.15;5.00;;;;;;;30.00;23.50;101513.91;4974819;28;20074;-74
2023/06/13 09:24:06;;;;;;;6.63;5.00;;;;;;;29.96;23.38;101511.56;4974278;28;20170;-73
2023/06/13 09:26:33;;;;;;;7.68;4.93;;;;;;;30.13;23.38;101516.41;4974586;28;20049;-73
2023/06/13 09:29:00;;;;;;;5.05;4.63;;;;;;;30.14;21.62;101507.59;4974856;28;20177;-76
2023/06/13 09:31:38;;;;;;;4.90;4.50;;;;;;;30.15;21.96;101500.81;4974857;28;20050;-75
2023/06/13 09:34:08;;;;;;;5.10;4.60;;;;;;;30.12;21.93;101503.97;4977601;28;20047;-73
2023/06/13 09:36:35;;;;;;;9.45;4.78;;;;;;;30.17;21.74;101511.25;4974738;28;20048;-74
2023/06/13 09:39:03;;;;;;;14.80;5.40;;;;;;;30.18;22.27;101507.94;4973730;28;20536;-74
2023/06/13 09:41:33;;;;;;;5.40;4.30;;;;;;;30.15;21.37;101503.56;4974251;28;20090;-74
2023/06/13 09:44:04;;;;;;;6.82;4.22;;;;;;;30.25;21.23;101503.69;4974363;28;20487;-74
2023/06/13 09:46:37;;;;;;;6.78;4.43;;;;;;;30.26;21.93;101504.44;4974499;28;20118;-78
2023/06/13 09:49:06;;;;;;;8.43;4.65;;;;;;;30.30;21.63;101513.72;4974340;28;20050;-75
2023/06/13 09:51:32;;;;;;;10.25;5.10;;;;;;;30.54;21.62;101498.50;4973222;28;20047;-75
2023/06/13 09:54:02;;;;;;;4.95;4.53;;;;;;;30.66;21.52;101498.81;4973829;28;20047;-75
2023/06/13 09:56:28;;;;;;;11.88;4.82;;;;;;;30.66;21.20;101499.53;4973771;28;20487;-75
2023/06/13 09:58:55;;;;;;;6.13;4.85;;;;;;;30.72;21.51;101515.78;4972842;28;20051;-76
2023/06/13 10:01:22;;;;;;;6.57;4.68;;;;;;;30.64;21.63;101510.34;4973762;28;20078;-76
2023/06/13 10:03:48;;;;;;;5.03;4.55;;;;;;;30.64;21.59;101509.63;4973858;28;20055;-78
2023/06/13 10:06:15;;;;;;;5.03;4.60;;;;;;;30.62;21.36;101490.97;4974064;28;20126;-78
2023/06/13 10:08:41;;;;;;;10.05;4.50;;;;;;;30.82;22.33;101492.59;4988585;28;20058;-78
2023/06/13 10:11:21;;;;;;;5.03;4.63;;;;;;;30.94;21.96;101492.13;4975353;28;20131;-84
2023/06/13 10:14:16;;;;;;;8.35;4.50;;;;;;;31.17;22.43;101492.63;4974248;28;20131;-76
2023/06/13 10:16:45;;;;;;;6.75;4.68;;;;;;;31.16;21.32;101502.19;4974020;28;20051;-76
2023/06/13 10:19:36;;;;;;;8.10;4.60;;;;;;;31.02;22.26;101496.25;4974046;28;20047;-76
2023/06/13 10:22:05;;;;;;;6.40;4.85;;;;;;;31.08;21.90;101485.72;4973687;28;20532;-76
2023/06/13 10:24:35;;;;;;;5.95;4.88;;;;;;;31.44;22.20;101482.38;4973620;28;20702;-75
2023/06/13 10:27:03;;;;;;;6.22;5.18;;;;;;;31.47;21.54;101497.03;4973632;28;20043;-75
2023/06/13 10:29:42;;;;;;;5.55;4.93;;;;;;;31.35;21.24;101498.81;4973503;28;20126;-74
2023/06/13 10:32:23;;;;;;;6.30;4.93;;;;;;;31.33;21.20;101493.88;4973471;28;20051;-75
2023/06/13 10:35:09;;;;;;;5.90;4.70;;;;;;;31.57;21.59;101484.06;4973863;28;20083;-76
2023/06/13 10:38:06;;;;;;;6.03;4.40;;;;;;;31.49;21.72;101495.16;4973403;28;20079;-75
2023/06/13 10:40:56;;;;;;;6.13;4.40;;;;;;;31.54;21.83;101487.97;4974241;28;20071;-75
2023/06/13 10:43:31;;;;;;;6.47;4.82;;;;;;;31.57;21.19;101489.56;4975507;28;20047;-76
2023/06/13 10:46:04;;;;;;;5.03;4.63;;;;;;;31.65;21.48;101478.44;4974609;28;20519;-74
2023/06/13 10:48:34;;;;;;;7.50;5.07;;;;;;;31.77;20.78;101471.88;4973948;28;20098;-76
2023/06/13 10:51:01;;;;;;;5.75;4.70;;;;;;;31.80;21.22;101475.50;4972046;28;20070;-77
2023/06/13 10:53:28;;;;;;;14.00;12.80;;;;;;;31.70;20.70;101458.94;4973328;28;20118;-77
2023/06/13 10:56:02;;;;;;;5.10;4.68;;;;;;;31.93;21.47;101485.44;4973419;28;20500;-75
2023/06/13 10:58:30;;;;;;;5.22;4.93;;;;;;;31.77;20.56;101465.63;4973294;28;20051;-76
2023/06/13 11:01:02;;;;;;;8.13;4.55;;;;;;;31.76;20.86;101466.94;4973439;28;20051;-75
2023/06/13 11:03:30;;;;;;;8.95;4.95;;;;;;;31.75;21.06;101452.44;4974494;28;20050;-76
2023/06/13 11:06:05;;;;;;;5.53;4.90;;;;;;;31.82;20.24;101453.66;4974933;28;20055;-76
2023/06/13 11:08:32;;;;;;;4.78;4.47;;;;;;;31.83;20.73;101444.09;4976116;28;20083;-76
2023/06/13 11:11:02;;;;;;;8.63;4.60;;;;;;;31.92;20.34;101456.44;4975722;28;20047;-75
2023/06/13 11:13:32;;;;;;;5.18;4.80;;;;;;;32.04;20.80;101449.81;4976489;28;20051;-75
2023/06/13 11:16:20;;;;;;;4.97;4.68;;;;;;;32.39;20.52;101442.09;4977956;28;20051;-76
2023/06/13 11:18:47;;;;;;;10.60;4.75;;;;;;;32.32;20.08;101440.22;4977238;28;20047;-76
2023/06/13 11:21:14;;;;;;;11.25;4.85;;;;;;;32.03;19.72;101445.59;4976062;28;20055;-77
2023/06/13 11:23:54;;;;;;;6.30;4.85;;;;;;;31.95;20.02;101442.25;4976507;28;20044;-76
2023/06/13 11:26:21;;;;;;;6.93;4.82;;;;;;;31.85;20.44;101440.75;4976488;28;20047;-75
2023/06/13 11:28:52;;;;;;;4.90;4.35;;;;;;;32.00;20.29;101444.00;4976561;28;20047;-75
2023/06/13 11:31:19;;;;;;;5.68;5.05;;;;;;;32.12;20.19;101441.44;4976152;28;20054;-76
2023/06/13 11:33:48;;;;;;;5.40;4.50;;;;;;;32.29;20.32;101444.13;4976463;28;20047;-76